Time;durP1;ratioP1;P1;durP2;ratioP2;P2;SDS_P1;SDS_P2;PMS_P1;PMS_P2;Temp;Humidity;BMP_temperature;BMP_pressure;BME280_temperature;BME280_humidity;BME280_pressure;Samples;Min_cycle;Max_cycle;Signal;HPM_P1;HPM_P2
2022/12/26 02:27:16;;;;;;;10.00;3.17;;;;;;;-145.16;100.00;77835.01;645097;217;32438;-79
2022/12/26 02:36:43;;;;;;;0.52;0.52;;;;;;;-145.16;100.00;77782.66;645126;217;32711;-79
2022/12/26 08:36:46;;;;;;;1.80;0.90;;;;;;;;;;653635;217;34337;-78
2022/12/26 11:44:30;;;;;;;0.30;0.30;;;;;;;-145.16;100.00;78359.62;645066;217;33364;-78
2022/12/26 12:07:53;;;;;;;1.30;0.50;;;;;;;-145.16;100.00;78372.71;645092;218;32364;-78
2022/12/26 12:13:57;;;;;;;2.17;0.73;;;;;;;-145.16;100.00;78370.70;644506;217;32619;-78
2022/12/26 13:36:54;;;;;;;0.20;0.20;;;;;;;-145.16;100.00;78567.07;645080;217;32391;-78
2022/12/26 13:49:10;;;;;;;0.27;0.27;;;;;;;-145.16;100.00;78602.31;645131;217;33358;-78
2022/12/26 13:55:04;;;;;;;0.20;0.20;;;;;;;-145.16;100.00;78605.34;653596;217;33322;-78
2022/12/26 14:06:50;;;;;;;0.10;0.10;;;;;;;-145.16;100.00;78603.33;644965;218;32338;-78
2022/12/26 14:48:48;;;;;;;0.10;0.10;;;;;;;-145.16;100.00;78795.69;645146;217;33344;-78
2022/12/26 15:07:04;;;;;;;0.57;0.40;;;;;;;-145.16;100.00;78971.94;645183;218;33491;-78
2022/12/26 15:12:55;;;;;;;1.50;1.15;;;;;;;-145.16;100.00;79015.24;650584;217;29653;-78
2022/12/26 15:18:46;;;;;;;0.10;0.00;;;;;;;-145.16;100.00;79040.42;653627;217;32378;-78
2022/12/26 15:24:34;;;;;;;0.70;0.30;;;;;;;-145.16;100.00;79069.63;653642;218;32318;-78
2022/12/26 15:30:42;;;;;;;0.43;0.43;;;;;;;-145.16;100.00;79073.66;645119;217;32431;-78
2022/12/26 15:36:24;;;;;;;0.00;0.00;;;;;;;-145.16;100.00;79066.61;645117;218;32390;-77
2022/12/26 15:42:07;;;;;;;0.10;0.10;;;;;;;-145.16;100.00;79082.73;645104;217;33294;-78
2022/12/26 15:47:49;;;;;;;0.00;0.00;;;;;;;-145.16;100.00;79098.84;645118;217;32370;-78
2022/12/26 15:53:33;;;;;;;2.30;2.10;;;;;;;-145.16;100.00;79125.03;645130;217;33348;-78
2022/12/26 15:59:38;;;;;;;0.00;0.00;;;;;;;-145.16;100.00;79132.08;644975;217;33345;-78
2022/12/26 16:05:24;;;;;;;0.00;0.00;;;;;;;-145.16;100.00;79152.23;645127;218;32443;-78
2022/12/26 16:11:06;;;;;;;0.73;0.13;;;;;;;-145.16;100.00;79203.59;653642;218;32466;-78
2022/12/26 16:16:47;;;;;;;0.10;0.10;;;;;;;-145.16;100.00;79216.69;645119;217;32706;-78
2022/12/26 16:22:45;;;;;;;0.10;0.10;;;;;;;-145.16;100.00;79206.62;645124;218;32360;-78
2022/12/26 16:28:26;;;;;;;0.40;0.30;;;;;;;-145.16;100.00;79243.89;645126;217;32384;-78
2022/12/26 16:34:07;;;;;;;0.00;0.00;;;;;;;-145.16;100.00;79237.84;645141;217;32367;-78
2022/12/26 16:39:51;;;;;;;1.03;1.03;;;;;;;-145.16;100.00;79263.02;653611;218;32380;-78
2022/12/26 16:45:40;;;;;;;1.30;1.30;;;;;;;-145.16;100.00;79268.06;653600;218;32646;-78
2022/12/26 16:51:22;;;;;;;0.70;0.70;;;;;;;-145.16;100.00;79269.06;645112;218;32408;-78
2022/12/26 16:57:03;;;;;;;0.50;0.50;;;;;;;-145.16;100.00;79301.30;653631;218;32395;-77
2022/12/26 17:02:45;;;;;;;0.10;0.10;;;;;;;-145.16;100.00;79334.55;645114;217;32384;-78
2022/12/26 17:08:29;;;;;;;0.40;0.40;;;;;;;-145.16;100.00;79317.42;645137;217;32342;-78
2022/12/26 17:14:12;;;;;;;0.80;0.50;;;;;;;-145.16;100.00;79322.45;653602;217;34345;-78
2022/12/26 17:19:53;;;;;;;0.03;0.03;;;;;;;-145.16;100.00;79344.62;645102;217;32389;-78
2022/12/26 17:25:35;;;;;;;0.47;0.40;;;;;;;-145.16;100.00;79366.78;645119;217;32412;-78
2022/12/26 17:31:36;;;;;;;0.40;0.40;;;;;;;-145.16;100.00;79365.77;645116;217;32672;-78
2022/12/26 17:37:18;;;;;;;1.33;0.40;;;;;;;-145.16;100.00;79365.77;653641;217;32404;-77
2022/12/26 17:43:04;;;;;;;1.30;0.57;;;;;;;-145.16;100.00;79385.91;653655;217;33371;-78
2022/12/26 17:48:45;;;;;;;6.00;0.70;;;;;;;-145.16;100.00;79395.98;645137;217;32389;-78
2022/12/26 17:54:29;;;;;;;0.00;0.00;;;;;;;-145.16;100.00;79390.95;653621;217;32363;-77
2022/12/26 18:00:11;;;;;;;0.37;0.37;;;;;;;-145.16;100.00;79406.06;645085;217;32430;-80
2022/12/26 18:05:55;;;;;;;1.30;0.20;;;;;;;-145.16;100.00;79409.08;645108;217;32435;-80
2022/12/26 18:11:35;;;;;;;7.40;0.63;;;;;;;-145.16;100.00;79438.30;645119;217;32658;-78
2022/12/26 18:17:17;;;;;;;0.53;0.53;;;;;;;-145.16;100.00;79432.25;653618;217;32471;-77
2022/12/26 18:22:59;;;;;;;9.80;1.30;;;;;;;-145.16;100.00;79438.30;645086;217;32381;-77
2022/12/26 18:28:40;;;;;;;3.57;1.03;;;;;;;-145.16;100.00;79428.22;653608;218;32425;-80
2022/12/26 18:34:22;;;;;;;1.20;0.60;;;;;;;-145.16;100.00;79420.16;645139;217;32337;-77
2022/12/26 18:40:03;;;;;;;2.73;0.57;;;;;;;-145.16;100.00;79430.23;653612;217;33405;-78
2022/12/26 18:45:45;;;;;;;0.73;0.73;;;;;;;-145.16;100.00;79454.41;645106;217;32407;-78
2022/12/26 18:51:26;;;;;;;1.00;0.30;;;;;;;-145.16;100.00;79477.58;645124;217;33392;-78
2022/12/26 18:57:09;;;;;;;1.73;0.80;;;;;;;-145.16;100.00;79499.74;645134;217;32322;-78
2022/12/26 19:02:50;;;;;;;0.63;0.53;;;;;;;-145.16;100.00;79481.61;653599;217;32378;-79
2022/12/26 19:08:30;;;;;;;2.20;0.50;;;;;;;-145.16;100.00;79456.42;653616;217;32330;-80
2022/12/26 19:14:12;;;;;;;1.40;0.60;;;;;;;-145.16;100.00;79452.40;653620;218;32382;-78
2022/12/26 19:19:53;;;;;;;0.77;0.77;;;;;;;-145.16;100.00;79460.45;645117;217;33377;-79
2022/12/26 19:25:34;;;;;;;3.57;1.77;;;;;;;-145.16;100.00;79426.20;645120;218;32379;-79
2022/12/26 19:31:16;;;;;;;3.07;0.80;;;;;;;-145.16;100.00;79435.27;645144;217;32648;-78
2022/12/26 19:36:57;;;;;;;0.20;0.20;;;;;;;-145.16;100.00;79405.05;645126;217;33388;-78
2022/12/26 19:42:39;;;;;;;0.90;0.67;;;;;;;-145.16;100.00;79382.89;645107;217;32441;-78
2022/12/26 19:48:20;;;;;;;2.93;1.53;;;;;;;-145.16;100.00;79400.02;645128;217;33354;-77
2022/12/26 19:54:02;;;;;;;0.83;0.60;;;;;;;-145.16;100.00;79389.94;653629;217;32421;-78
2022/12/26 19:59:43;;;;;;;0.30;0.30;;;;;;;-145.16;100.00;79387.93;653641;217;32476;-77
2022/12/26 20:05:25;;;;;;;0.30;0.30;;;;;;;-145.16;100.00;79397.00;645083;217;32369;-77
2022/12/26 20:11:06;;;;;;;0.53;0.53;;;;;;;-145.16;100.00;79413.11;653626;217;32455;-77
2022/12/26 20:16:51;;;;;;;0.37;0.37;;;;;;;-145.16;100.00;79425.20;645125;217;33417;-77
2022/12/26 20:22:30;;;;;;;0.80;0.70;;;;;;;-145.16;100.00;79433.26;653597;216;32422;-78
2022/12/26 20:28:11;;;;;;;1.40;0.60;;;;;;;-145.16;100.00;79458.44;653638;217;32390;-77
2022/12/26 20:33:52;;;;;;;6.50;0.90;;;;;;;-145.16;100.00;79447.36;645126;216;32443;-78
2022/12/26 20:39:34;;;;;;;3.40;0.93;;;;;;;-145.16;100.00;79479.59;645072;216;32379;-80
2022/12/26 20:45:15;;;;;;;0.47;0.47;;;;;;;-145.16;100.00;79474.56;645092;217;32369;-78
2022/12/26 20:50:57;;;;;;;4.40;0.80;;;;;;;-145.16;100.00;79484.63;653607;217;32360;-78
2022/12/26 20:56:38;;;;;;;1.10;0.93;;;;;;;-145.16;100.00;79471.54;645112;217;32376;-78
2022/12/26 21:02:19;;;;;;;1.67;0.73;;;;;;;-145.16;100.00;79486.65;653626;217;32371;-78
2022/12/26 21:08:01;;;;;;;1.03;0.93;;;;;;;-145.16;100.00;79485.64;653623;217;32357;-80
2022/12/26 21:13:42;;;;;;;0.67;0.67;;;;;;;-145.16;100.00;79498.73;645125;217;32428;-78
2022/12/26 21:19:24;;;;;;;2.97;1.17;;;;;;;-145.16;100.00;79507.80;645106;217;32480;-78
2022/12/26 21:25:05;;;;;;;0.30;0.30;;;;;;;-145.16;100.00;79511.83;645089;217;33383;-80
2022/12/26 21:30:47;;;;;;;3.33;1.10;;;;;;;-145.16;100.00;79528.95;653597;218;32386;-78
2022/12/26 21:36:28;;;;;;;1.30;1.13;;;;;;;-145.16;100.00;79536.00;653634;217;32392;-80
2022/12/26 21:42:09;;;;;;;0.33;0.33;;;;;;;-145.16;100.00;79553.13;644677;217;33391;-77
2022/12/26 21:47:51;;;;;;;1.07;0.77;;;;;;;-145.16;100.00;79564.21;643865;217;33330;-80
2022/12/26 21:53:32;;;;;;;1.37;1.27;;;;;;;-145.16;100.00;79582.34;645127;216;32421;-80
2022/12/26 22:05:18;;;;;;;2.97;1.10;;;;;;;-145.16;100.00;79581.34;645096;217;32407;-80
2022/12/26 22:16:59;;;;;;;4.07;1.03;;;;;;;-145.16;100.00;79588.39;645130;218;32427;-78
2022/12/26 22:22:40;;;;;;;1.40;1.03;;;;;;;-145.16;100.00;79601.48;645126;217;32504;-80
2022/12/26 22:28:21;;;;;;;0.47;0.47;;;;;;;-145.16;100.00;79609.55;645147;217;32335;-78
2022/12/26 22:34:03;;;;;;;0.90;0.90;;;;;;;-145.16;100.00;79616.59;653616;217;33367;-80
2022/12/26 22:39:44;;;;;;;0.90;0.90;;;;;;;-145.16;100.00;79633.72;645103;216;32395;-78
2022/12/26 22:45:27;;;;;;;1.20;1.10;;;;;;;-145.16;100.00;79648.83;644979;217;32724;-78
2022/12/26 22:51:09;;;;;;;1.90;0.77;;;;;;;-145.16;100.00;79647.83;645116;217;32427;-78
2022/12/26 22:56:51;;;;;;;1.40;1.17;;;;;;;-145.16;100.00;79652.86;645087;217;32417;-78
2022/12/26 23:02:32;;;;;;;1.20;0.87;;;;;;;-145.16;100.00;79668.98;645130;217;32378;-80
2022/12/26 23:08:14;;;;;;;0.73;0.73;;;;;;;-145.16;100.00;79666.97;653608;214;32365;-78
2022/12/26 23:13:55;;;;;;;0.60;0.60;;;;;;;-145.16;100.00;79669.98;645125;217;32397;-78
2022/12/26 23:25:37;;;;;;;2.30;1.27;;;;;;;-145.16;100.00;79698.19;645130;218;32386;-78
2022/12/26 23:31:18;;;;;;;2.33;1.07;;;;;;;-145.16;100.00;79700.21;645113;216;32368;-78
2022/12/26 23:37:00;;;;;;;0.33;0.33;;;;;;;-145.16;100.00;79703.23;645118;217;32412;-78
2022/12/26 23:42:41;;;;;;;1.90;1.20;;;;;;;-145.16;100.00;79705.25;645121;217;33409;-78
2022/12/26 23:48:23;;;;;;;1.90;0.93;;;;;;;-145.16;100.00;79708.27;653036;217;32429;-78
2022/12/26 23:54:05;;;;;;;3.10;1.23;;;;;;;-145.16;100.00;79715.32;637534;218;32589;-78
2022/12/26 23:59:47;;;;;;;1.13;0.63;;;;;;;-145.16;100.00;79700.21;645070;218;32419;-78
